sensor_id;sensor_type;location;lat;lon;timestamp;pressure;altitude;pressure_sealevel;temperature;humidity
29879;BME280;16752;53.364;-1.488;2022-09-03T00:07:45;99776.44;;;26.58;42.92
29879;BME280;16752;53.364;-1.488;2022-09-03T00:31:16;99766.88;;;26.37;43.36
29879;BME280;16752;53.364;-1.488;2022-09-03T01:39:04;99737.00;;;26.20;43.66
29879;BME280;16752;53.364;-1.488;2022-09-03T01:42:36;99728.34;;;26.18;43.90
29879;BME280;16752;53.364;-1.488;2022-09-03T02:02:59;99709.47;;;26.07;44.33
29879;BME280;16752;53.364;-1.488;2022-09-03T02:16:43;99698.28;;;26.10;44.43
29879;BME280;16752;53.364;-1.488;2022-09-03T02:30:51;99698.81;;;26.18;44.22
29879;BME280;16752;53.364;-1.488;2022-09-03T02:37:24;99716.56;;;26.19;44.29
29879;BME280;16752;53.364;-1.488;2022-09-03T02:49:49;99692.41;;;26.19;44.66
29879;BME280;16752;53.364;-1.488;2022-09-03T02:52:15;99680.09;;;26.12;44.82
29879;BME280;16752;53.364;-1.488;2022-09-03T02:54:40;99673.31;;;26.09;45.09
29879;BME280;16752;53.364;-1.488;2022-09-03T02:57:09;99666.28;;;26.08;45.27
29879;BME280;16752;53.364;-1.488;2022-09-03T02:59:35;99660.09;;;26.08;45.52
29879;BME280;16752;53.364;-1.488;2022-09-03T03:02:01;99663.81;;;26.07;45.76
29879;BME280;16752;53.364;-1.488;2022-09-03T03:04:27;99674.19;;;26.03;45.92
29879;BME280;16752;53.364;-1.488;2022-09-03T03:06:55;99674.19;;;26.03;45.76
29879;BME280;16752;53.364;-1.488;2022-09-03T03:09:21;99667.34;;;26.01;46.06
29879;BME280;16752;53.364;-1.488;2022-09-03T03:11:46;99669.66;;;25.97;46.26
29879;BME280;16752;53.364;-1.488;2022-09-03T03:14:14;99659.16;;;25.96;46.16
29879;BME280;16752;53.364;-1.488;2022-09-03T03:16:40;99659.38;;;25.94;46.45
29879;BME280;16752;53.364;-1.488;2022-09-03T03:19:05;99661.44;;;25.92;46.42
29879;BME280;16752;53.364;-1.488;2022-09-03T03:21:31;99657.13;;;25.91;46.40
29879;BME280;16752;53.364;-1.488;2022-09-03T03:23:56;99667.25;;;25.89;46.74
29879;BME280;16752;53.364;-1.488;2022-09-03T03:26:22;99666.66;;;25.87;46.69
29879;BME280;16752;53.364;-1.488;2022-09-03T03:28:48;99664.41;;;25.84;46.58
29879;BME280;16752;53.364;-1.488;2022-09-03T03:31:16;99664.81;;;25.81;46.79
29879;BME280;16752;53.364;-1.488;2022-09-03T03:33:42;99664.81;;;25.81;46.74
29879;BME280;16752;53.364;-1.488;2022-09-03T03:38:34;99669.78;;;25.84;46.91
29879;BME280;16752;53.364;-1.488;2022-09-03T03:41:05;99668.94;;;25.83;46.82
29879;BME280;16752;53.364;-1.488;2022-09-03T03:43:31;99664.81;;;25.81;46.86
29879;BME280;16752;53.364;-1.488;2022-09-03T03:45:59;99660.50;;;25.80;46.90
29879;BME280;16752;53.364;-1.488;2022-09-03T03:48:25;99660.94;;;25.77;46.88
29879;BME280;16752;53.364;-1.488;2022-09-03T03:50:51;99654.53;;;25.78;47.04
29879;BME280;16752;53.364;-1.488;2022-09-03T03:53:17;99653.69;;;25.77;47.05
29879;BME280;16752;53.364;-1.488;2022-09-03T03:55:42;99648.34;;;25.77;47.08
29879;BME280;16752;53.364;-1.488;2022-09-03T03:58:08;99648.34;;;25.77;47.09
29879;BME280;16752;53.364;-1.488;2022-09-03T04:00:33;99643.19;;;25.76;46.98
29879;BME280;16752;53.364;-1.488;2022-09-03T04:03:04;99639.69;;;25.75;47.07
29879;BME280;16752;53.364;-1.488;2022-09-03T04:05:29;99643.19;;;25.76;47.13
29879;BME280;16752;53.364;-1.488;2022-09-03T04:07:59;99648.16;;;25.72;47.17
29879;BME280;16752;53.364;-1.488;2022-09-03T04:10:25;99656.00;;;25.74;47.15
29879;BME280;16752;53.364;-1.488;2022-09-03T04:12:58;99648.81;;;25.68;47.17
29879;BME280;16752;53.364;-1.488;2022-09-03T04:15:25;99648.19;;;25.66;47.22
29879;BME280;16752;53.364;-1.488;2022-09-03T04:17:54;99653.78;;;25.64;47.25
29879;BME280;16752;53.364;-1.488;2022-09-03T04:20:22;99663.69;;;25.64;47.44
29879;BME280;16752;53.364;-1.488;2022-09-03T04:22:51;99659.97;;;25.65;47.21
29879;BME280;16752;53.364;-1.488;2022-09-03T04:25:16;99663.69;;;25.64;47.32
29879;BME280;16752;53.364;-1.488;2022-09-03T04:27:42;99649.69;;;25.55;47.19
29879;BME280;16752;53.364;-1.488;2022-09-03T04:30:09;99664.13;;;25.54;47.39
29879;BME280;16752;53.364;-1.488;2022-09-03T04:32:35;99660.44;;;25.48;47.40
29879;BME280;16752;53.364;-1.488;2022-09-03T04:35:19;99651.81;;;25.46;47.42
29879;BME280;16752;53.364;-1.488;2022-09-03T04:37:45;99654.50;;;25.46;47.34
29879;BME280;16752;53.364;-1.488;2022-09-03T04:40:11;99661.28;;;25.49;47.31
29879;BME280;16752;53.364;-1.488;2022-09-03T04:42:37;99641.69;;;25.48;47.36
29879;BME280;16752;53.364;-1.488;2022-09-03T04:45:04;99649.78;;;25.42;47.45
29879;BME280;16752;53.364;-1.488;2022-09-03T04:47:30;99642.56;;;25.42;47.29
29879;BME280;16752;53.364;-1.488;2022-09-03T04:49:56;99640.09;;;25.41;47.37
29879;BME280;16752;53.364;-1.488;2022-09-03T04:52:22;99633.28;;;25.38;47.40
29879;BME280;16752;53.364;-1.488;2022-09-03T04:54:49;99636.38;;;25.35;47.39
29879;BME280;16752;53.364;-1.488;2022-09-03T04:57:14;99643.59;;;25.35;47.72
29879;BME280;16752;53.364;-1.488;2022-09-03T04:59:40;99638.25;;;25.35;47.45
29879;BME280;16752;53.364;-1.488;2022-09-03T05:02:07;99631.44;;;25.32;47.40
29879;BME280;16752;53.364;-1.488;2022-09-03T05:04:32;99633.31;;;25.32;47.48
29879;BME280;16752;53.364;-1.488;2022-09-03T05:06:58;99631.66;;;25.31;47.40
29879;BME280;16752;53.364;-1.488;2022-09-03T05:09:23;99637.41;;;25.34;47.22
29879;BME280;16752;53.364;-1.488;2022-09-03T05:11:49;99644.44;;;25.35;47.31
29879;BME280;16752;53.364;-1.488;2022-09-03T05:14:14;99635.34;;;25.36;47.14
29879;BME280;16752;53.364;-1.488;2022-09-03T05:16:40;99638.84;;;25.37;47.46
29879;BME280;16752;53.364;-1.488;2022-09-03T05:19:05;99636.16;;;25.37;47.50
29879;BME280;16752;53.364;-1.488;2022-09-03T05:21:32;99644.03;;;25.38;47.16
29879;BME280;16752;53.364;-1.488;2022-09-03T05:24:00;99647.72;;;25.37;47.52
29879;BME280;16752;53.364;-1.488;2022-09-03T05:26:27;99640.09;;;25.34;47.46
29879;BME280;16752;53.364;-1.488;2022-09-03T05:28:53;99647.31;;;25.34;47.38
29879;BME280;16752;53.364;-1.488;2022-09-03T05:31:20;99644.84;;;25.32;47.42
29879;BME280;16752;53.364;-1.488;2022-09-03T05:33:47;99647.53;;;25.32;47.51
29879;BME280;16752;53.364;-1.488;2022-09-03T05:36:13;99649.63;;;25.30;47.32
29879;BME280;16752;53.364;-1.488;2022-09-03T05:38:40;99643.84;;;25.26;47.35
29879;BME280;16752;53.364;-1.488;2022-09-03T05:41:07;99648.22;;;25.21;47.44
29879;BME280;16752;53.364;-1.488;2022-09-03T05:43:33;99638.75;;;25.18;47.39
29879;BME280;16752;53.364;-1.488;2022-09-03T05:45:59;99636.28;;;25.17;47.41
29879;BME280;16752;53.364;-1.488;2022-09-03T05:48:25;99639.16;;;25.15;47.60
29879;BME280;16752;53.364;-1.488;2022-09-03T05:50:59;99638.31;;;25.15;47.53
29879;BME280;16752;53.364;-1.488;2022-09-03T05:53:25;99642.66;;;25.16;47.46
29879;BME280;16752;53.364;-1.488;2022-09-03T05:55:57;99641.44;;;25.12;47.55
29879;BME280;16752;53.364;-1.488;2022-09-03T05:58:23;99642.03;;;25.14;47.74
29879;BME280;16752;53.364;-1.488;2022-09-03T06:00:50;99644.94;;;25.19;47.43
29879;BME280;16752;53.364;-1.488;2022-09-03T06:03:16;99638.31;;;25.21;47.49
29879;BME280;16752;53.364;-1.488;2022-09-03T06:05:51;99644.50;;;25.22;47.66
29879;BME280;16752;53.364;-1.488;2022-09-03T06:08:16;99635.38;;;25.29;47.80
29879;BME280;16752;53.364;-1.488;2022-09-03T06:10:42;99632.47;;;25.38;47.60
29879;BME280;16752;53.364;-1.488;2022-09-03T06:13:07;99630.78;;;25.43;47.53
29879;BME280;16752;53.364;-1.488;2022-09-03T06:15:33;99632.81;;;25.48;47.53
29879;BME280;16752;53.364;-1.488;2022-09-03T06:17:58;99627.84;;;25.51;47.59
29879;BME280;16752;53.364;-1.488;2022-09-03T06:20:24;99634.41;;;25.55;47.51
29879;BME280;16752;53.364;-1.488;2022-09-03T06:22:53;99631.94;;;25.61;47.51
29879;BME280;16752;53.364;-1.488;2022-09-03T06:25:19;99633.13;;;25.65;47.50
29879;BME280;16752;53.364;-1.488;2022-09-03T06:27:44;99638.69;;;25.70;47.48
29879;BME280;16752;53.364;-1.488;2022-09-03T06:30:11;99636.78;;;25.77;47.48
29879;BME280;16752;53.364;-1.488;2022-09-03T06:32:44;99629.31;;;25.85;47.18
29879;BME280;16752;53.364;-1.488;2022-09-03T06:35:10;99639.97;;;25.92;47.39
29879;BME280;16752;53.364;-1.488;2022-09-03T06:37:39;99629.41;;;25.97;47.46
29879;BME280;16752;53.364;-1.488;2022-09-03T06:40:05;99632.88;;;26.04;47.24
29879;BME280;16752;53.364;-1.488;2022-09-03T06:42:38;99637.50;;;25.91;47.31
29879;BME280;16752;53.364;-1.488;2022-09-03T06:45:07;99653.13;;;26.00;47.09
29879;BME280;16752;53.364;-1.488;2022-09-03T06:47:33;99662.19;;;26.06;46.98
29879;BME280;16752;53.364;-1.488;2022-09-03T06:49:59;99657.94;;;26.16;46.86
29879;BME280;16752;53.364;-1.488;2022-09-03T06:52:29;99649.22;;;26.21;47.18
29879;BME280;16752;53.364;-1.488;2022-09-03T06:54:54;99648.16;;;26.29;47.14
29879;BME280;16752;53.364;-1.488;2022-09-03T06:57:20;99635.72;;;26.34;47.07
29879;BME280;16752;53.364;-1.488;2022-09-03T06:59:45;99639.63;;;26.38;47.04
29879;BME280;16752;53.364;-1.488;2022-09-03T07:02:11;99637.47;;;26.47;47.10
29879;BME280;16752;53.364;-1.488;2022-09-03T07:04:37;99633.59;;;26.61;46.94
29879;BME280;16752;53.364;-1.488;2022-09-03T07:07:03;99629.00;;;26.68;46.73
29879;BME280;16752;53.364;-1.488;2022-09-03T07:09:28;99641.09;;;26.77;46.58
29879;BME280;16752;53.364;-1.488;2022-09-03T07:11:54;99645.84;;;26.75;46.39
29879;BME280;16752;53.364;-1.488;2022-09-03T07:14:20;99647.41;;;26.83;46.15
29879;BME280;16752;53.364;-1.488;2022-09-03T07:16:47;99635.75;;;26.89;46.03
29879;BME280;16752;53.364;-1.488;2022-09-03T07:19:13;99644.00;;;26.94;45.92
29879;BME280;16752;53.364;-1.488;2022-09-03T07:21:39;99649.53;;;26.99;45.85
29879;BME280;16752;53.364;-1.488;2022-09-03T07:24:08;99647.69;;;27.00;45.64
29879;BME280;16752;53.364;-1.488;2022-09-03T07:26:34;99641.03;;;27.02;45.28
29879;BME280;16752;53.364;-1.488;2022-09-03T07:29:00;99651.09;;;27.07;45.46
29879;BME280;16752;53.364;-1.488;2022-09-03T07:31:27;99643.03;;;27.07;45.46
29879;BME280;16752;53.364;-1.488;2022-09-03T07:33:56;99641.38;;;27.06;45.40
29879;BME280;16752;53.364;-1.488;2022-09-03T07:36:24;99641.53;;;27.11;45.58
29879;BME280;16752;53.364;-1.488;2022-09-03T07:38:50;99653.28;;;27.17;45.53
29879;BME280;16752;53.364;-1.488;2022-09-03T07:41:16;99648.13;;;27.15;44.40
29879;BME280;16752;53.364;-1.488;2022-09-03T07:43:45;99643.59;;;27.27;44.57
29879;BME280;16752;53.364;-1.488;2022-09-03T07:46:15;99646.44;;;27.32;44.29
29879;BME280;16752;53.364;-1.488;2022-09-03T07:51:15;99649.66;;;27.53;44.47
29879;BME280;16752;53.364;-1.488;2022-09-03T07:53:42;99648.03;;;27.52;44.20
29879;BME280;16752;53.364;-1.488;2022-09-03T07:56:08;99651.78;;;27.51;44.01
29879;BME280;16752;53.364;-1.488;2022-09-03T07:58:34;99657.38;;;27.67;44.05
29879;BME280;16752;53.364;-1.488;2022-09-03T08:01:07;99654.03;;;27.84;43.91
29879;BME280;16752;53.364;-1.488;2022-09-03T08:03:34;99663.75;;;27.96;43.50
29879;BME280;16752;53.364;-1.488;2022-09-03T08:06:28;99657.47;;;28.03;43.41
29879;BME280;16752;53.364;-1.488;2022-09-03T08:09:05;99657.44;;;27.91;43.43
29879;BME280;16752;53.364;-1.488;2022-09-03T08:11:40;99659.53;;;27.89;43.20
29879;BME280;16752;53.364;-1.488;2022-09-03T08:14:11;99654.84;;;27.84;43.14
29879;BME280;16752;53.364;-1.488;2022-09-03T08:24:23;99653.44;;;27.93;42.95
29879;BME280;16752;53.364;-1.488;2022-09-03T08:31:36;99654.88;;;28.08;43.05
29879;BME280;16752;53.364;-1.488;2022-09-03T08:47:14;99665.25;;;28.34;42.53
29879;BME280;16752;53.364;-1.488;2022-09-03T08:57:35;99690.53;;;28.33;42.16
29879;BME280;16752;53.364;-1.488;2022-09-03T09:07:50;99687.16;;;28.38;41.68
29879;BME280;16752;53.364;-1.488;2022-09-03T09:31:05;99688.19;;;28.60;41.38
29879;BME280;16752;53.364;-1.488;2022-09-03T09:37:14;99691.88;;;28.89;40.85
29879;BME280;16752;53.364;-1.488;2022-09-03T09:40:30;99691.94;;;29.06;40.76
29879;BME280;16752;53.364;-1.488;2022-09-03T10:00:39;99691.19;;;29.34;39.57
29879;BME280;16752;53.364;-1.488;2022-09-03T10:06:12;99693.47;;;29.13;39.82
29879;BME280;16752;53.364;-1.488;2022-09-03T10:25:33;99688.72;;;29.32;38.89
29879;BME280;16752;53.364;-1.488;2022-09-03T10:33:32;99686.22;;;29.71;38.21
29879;BME280;16752;53.364;-1.488;2022-09-03T10:41:34;99683.78;;;29.69;37.80
29879;BME280;16752;53.364;-1.488;2022-09-03T10:51:47;99678.94;;;30.00;37.21
29879;BME280;16752;53.364;-1.488;2022-09-03T10:54:29;99676.53;;;30.15;36.84
29879;BME280;16752;53.364;-1.488;2022-09-03T11:00:09;99680.25;;;30.48;36.27
29879;BME280;16752;53.364;-1.488;2022-09-03T11:05:28;99684.69;;;30.20;36.34
29879;BME280;16752;53.364;-1.488;2022-09-03T11:08:06;99681.56;;;30.45;35.60
29879;BME280;16752;53.364;-1.488;2022-09-03T11:10:36;99672.66;;;30.28;35.48
29879;BME280;16752;53.364;-1.488;2022-09-03T11:13:07;99677.81;;;30.63;35.85
29879;BME280;16752;53.364;-1.488;2022-09-03T11:18:17;99673.41;;;31.39;34.64
29879;BME280;16752;53.364;-1.488;2022-09-03T11:20:45;99671.34;;;31.73;33.63
29879;BME280;16752;53.364;-1.488;2022-09-03T11:23:15;99674.44;;;31.87;33.47
29879;BME280;16752;53.364;-1.488;2022-09-03T11:34:52;99665.78;;;31.63;32.81
29879;BME280;16752;53.364;-1.488;2022-09-03T11:37:22;99670.50;;;32.00;32.78
29879;BME280;16752;53.364;-1.488;2022-09-03T11:45:37;99668.22;;;31.86;31.54
29879;BME280;16752;53.364;-1.488;2022-09-03T11:48:19;99659.69;;;31.73;31.53
29879;BME280;16752;53.364;-1.488;2022-09-03T11:50:56;99658.81;;;31.94;32.04
29879;BME280;16752;53.364;-1.488;2022-09-03T11:53:52;99654.38;;;32.15;32.03
29879;BME280;16752;53.364;-1.488;2022-09-03T11:56:26;99664.94;;;32.11;31.37
29879;BME280;16752;53.364;-1.488;2022-09-03T11:59:03;99664.13;;;32.16;31.60
29879;BME280;16752;53.364;-1.488;2022-09-03T12:01:32;99664.31;;;32.04;31.24
29879;BME280;16752;53.364;-1.488;2022-09-03T12:04:05;99664.84;;;32.33;31.30
29879;BME280;16752;53.364;-1.488;2022-09-03T12:09:37;99656.94;;;32.32;31.04
29879;BME280;16752;53.364;-1.488;2022-09-03T12:12:11;99654.81;;;32.34;30.61
29879;BME280;16752;53.364;-1.488;2022-09-03T12:15:01;99661.63;;;32.41;30.79
29879;BME280;16752;53.364;-1.488;2022-09-03T12:23:47;99667.03;;;31.50;31.14
29879;BME280;16752;53.364;-1.488;2022-09-03T12:26:18;99666.81;;;31.57;31.43
29879;BME280;16752;53.364;-1.488;2022-09-03T12:28:52;99673.88;;;31.85;31.12
29879;BME280;16752;53.364;-1.488;2022-09-03T12:31:20;99669.28;;;31.85;30.84
29879;BME280;16752;53.364;-1.488;2022-09-03T12:33:57;99668.22;;;32.18;30.67
29879;BME280;16752;53.364;-1.488;2022-09-03T12:39:27;99658.44;;;32.12;30.84
29879;BME280;16752;53.364;-1.488;2022-09-03T12:42:54;99653.19;;;32.33;30.56
29879;BME280;16752;53.364;-1.488;2022-09-03T12:48:24;99650.66;;;32.63;29.85
29879;BME280;16752;53.364;-1.488;2022-09-03T12:51:00;99647.13;;;32.63;30.23
29879;BME280;16752;53.364;-1.488;2022-09-03T12:53:54;99656.81;;;32.96;29.60
29879;BME280;16752;53.364;-1.488;2022-09-03T12:56:25;99655.03;;;32.69;29.91
29879;BME280;16752;53.364;-1.488;2022-09-03T12:59:01;99656.75;;;32.38;29.63
29879;BME280;16752;53.364;-1.488;2022-09-03T13:01:31;99656.00;;;32.53;28.89
29879;BME280;16752;53.364;-1.488;2022-09-03T13:07:32;99655.44;;;32.46;29.46
29879;BME280;16752;53.364;-1.488;2022-09-03T13:10:08;99657.09;;;32.52;28.99
29879;BME280;16752;53.364;-1.488;2022-09-03T13:12:45;99650.94;;;32.67;28.93
29879;BME280;16752;53.364;-1.488;2022-09-03T13:15:19;99650.59;;;32.53;28.77
29879;BME280;16752;53.364;-1.488;2022-09-03T13:17:56;99644.69;;;32.61;29.06
29879;BME280;16752;53.364;-1.488;2022-09-03T13:20:52;99647.53;;;32.87;29.04
29879;BME280;16752;53.364;-1.488;2022-09-03T13:31:05;99654.16;;;33.16;28.42
29879;BME280;16752;53.364;-1.488;2022-09-03T13:36:03;99643.84;;;33.13;27.90
29879;BME280;16752;53.364;-1.488;2022-09-03T13:41:48;99636.56;;;33.19;28.34
29879;BME280;16752;53.364;-1.488;2022-09-03T13:44:23;99637.66;;;33.28;28.53
29879;BME280;16752;53.364;-1.488;2022-09-03T13:50:43;99639.69;;;32.85;28.42
29879;BME280;16752;53.364;-1.488;2022-09-03T14:04:26;99635.19;;;32.21;29.22
29879;BME280;16752;53.364;-1.488;2022-09-03T14:06:59;99643.22;;;32.43;28.67
29879;BME280;16752;53.364;-1.488;2022-09-03T14:15:48;99647.41;;;31.92;29.16
29879;BME280;16752;53.364;-1.488;2022-09-03T14:23:48;99632.00;;;32.30;28.85
29879;BME280;16752;53.364;-1.488;2022-09-03T14:26:34;99633.69;;;32.04;28.82
29879;BME280;16752;53.364;-1.488;2022-09-03T14:35:21;99633.94;;;32.02;28.50
29879;BME280;16752;53.364;-1.488;2022-09-03T14:38:07;99634.31;;;31.84;29.22
29879;BME280;16752;53.364;-1.488;2022-09-03T14:40:46;99630.72;;;32.05;29.38
29879;BME280;16752;53.364;-1.488;2022-09-03T14:43:25;99638.13;;;31.83;29.54
29879;BME280;16752;53.364;-1.488;2022-09-03T14:54:29;99640.38;;;31.91;29.19
29879;BME280;16752;53.364;-1.488;2022-09-03T14:59:43;99635.53;;;31.98;29.49
29879;BME280;16752;53.364;-1.488;2022-09-03T15:07:59;99650.16;;;30.99;30.33
29879;BME280;16752;53.364;-1.488;2022-09-03T15:13:16;99644.44;;;31.40;30.06
29879;BME280;16752;53.364;-1.488;2022-09-03T15:16:03;99646.88;;;31.41;29.72
29879;BME280;16752;53.364;-1.488;2022-09-03T15:18:51;99652.28;;;31.90;29.54
29879;BME280;16752;53.364;-1.488;2022-09-03T15:49:59;99657.44;;;31.91;28.83
29879;BME280;16752;53.364;-1.488;2022-09-03T16:07:54;99657.81;;;31.24;29.61
29879;BME280;16752;53.364;-1.488;2022-09-03T16:46:44;99681.38;;;30.85;31.61
29879;BME280;16752;53.364;-1.488;2022-09-03T16:49:24;99677.28;;;30.83;31.93
29879;BME280;16752;53.364;-1.488;2022-09-03T16:51:56;99677.63;;;30.69;31.93
29879;BME280;16752;53.364;-1.488;2022-09-03T17:10:45;99689.25;;;30.53;32.81
29879;BME280;16752;53.364;-1.488;2022-09-03T17:18:13;99698.13;;;30.49;33.02
29879;BME280;16752;53.364;-1.488;2022-09-03T17:20:51;99697.88;;;30.50;32.91
29879;BME280;16752;53.364;-1.488;2022-09-03T17:23:30;99702.13;;;30.46;33.08
29879;BME280;16752;53.364;-1.488;2022-09-03T17:26:11;99699.09;;;30.42;33.09
29879;BME280;16752;53.364;-1.488;2022-09-03T17:34:08;99706.72;;;30.29;33.44
29879;BME280;16752;53.364;-1.488;2022-09-03T17:36:37;99702.38;;;30.28;33.60
29879;BME280;16752;53.364;-1.488;2022-09-03T17:39:16;99704.84;;;30.29;33.58
29879;BME280;16752;53.364;-1.488;2022-09-03T17:41:50;99703.84;;;30.35;33.55
29879;BME280;16752;53.364;-1.488;2022-09-03T17:47:16;99702.94;;;30.30;33.41
29879;BME280;16752;53.364;-1.488;2022-09-03T17:54:59;99707.94;;;30.21;33.83
29879;BME280;16752;53.364;-1.488;2022-09-03T17:57:31;99712.78;;;30.19;33.67
29879;BME280;16752;53.364;-1.488;2022-09-03T18:02:35;99718.56;;;30.11;33.59
29879;BME280;16752;53.364;-1.488;2022-09-03T18:05:03;99721.03;;;30.13;33.57
29879;BME280;16752;53.364;-1.488;2022-09-03T18:07:45;99716.94;;;30.10;33.94
29879;BME280;16752;53.364;-1.488;2022-09-03T18:12:55;99725.47;;;29.90;33.88
29879;BME280;16752;53.364;-1.488;2022-09-03T18:18:10;99729.69;;;29.98;33.93
29879;BME280;16752;53.364;-1.488;2022-09-03T18:20:55;99732.19;;;29.88;33.88
29879;BME280;16752;53.364;-1.488;2022-09-03T18:23:49;99725.88;;;29.82;34.11
29879;BME280;16752;53.364;-1.488;2022-09-03T18:26:38;99734.63;;;29.89;33.63
29879;BME280;16752;53.364;-1.488;2022-09-03T18:29:36;99731.94;;;29.89;33.97
29879;BME280;16752;53.364;-1.488;2022-09-03T18:32:22;99742.41;;;29.86;33.84
29879;BME280;16752;53.364;-1.488;2022-09-03T18:35:08;99746.66;;;29.81;33.98
29879;BME280;16752;53.364;-1.488;2022-09-03T18:37:52;99747.72;;;29.80;33.78
29879;BME280;16752;53.364;-1.488;2022-09-03T18:56:06;99762.59;;;29.43;34.63
29879;BME280;16752;53.364;-1.488;2022-09-03T19:01:40;99769.09;;;29.18;35.25
29879;BME280;16752;53.364;-1.488;2022-09-03T19:10:25;99777.66;;;29.50;34.99
29879;BME280;16752;53.364;-1.488;2022-09-03T19:13:31;99778.91;;;29.48;35.21
29879;BME280;16752;53.364;-1.488;2022-09-03T19:22:35;99785.13;;;29.37;35.39
29879;BME280;16752;53.364;-1.488;2022-09-03T19:25:23;99788.91;;;29.24;36.04
29879;BME280;16752;53.364;-1.488;2022-09-03T19:28:14;99797.94;;;29.30;35.86
29879;BME280;16752;53.364;-1.488;2022-09-03T19:36:46;99803.22;;;29.25;36.04
29879;BME280;16752;53.364;-1.488;2022-09-03T19:45:29;99812.72;;;29.15;36.60
29879;BME280;16752;53.364;-1.488;2022-09-03T19:48:21;99817.66;;;29.07;36.55
29879;BME280;16752;53.364;-1.488;2022-09-03T19:51:15;99815.78;;;29.07;36.55
29879;BME280;16752;53.364;-1.488;2022-09-03T19:54:01;99814.00;;;29.01;36.91
29879;BME280;16752;53.364;-1.488;2022-09-03T19:56:46;99829.25;;;28.96;37.24
29879;BME280;16752;53.364;-1.488;2022-09-03T19:59:38;99824.81;;;28.89;37.62
29879;BME280;16752;53.364;-1.488;2022-09-03T20:02:24;99828.63;;;28.82;37.63
29879;BME280;16752;53.364;-1.488;2022-09-03T20:05:26;99824.16;;;28.76;37.42
29879;BME280;16752;53.364;-1.488;2022-09-03T20:08:15;99827.56;;;28.71;37.85
29879;BME280;16752;53.364;-1.488;2022-09-03T20:10:59;99825.56;;;28.67;37.75
29879;BME280;16752;53.364;-1.488;2022-09-03T20:13:25;99834.72;;;28.66;37.77
29879;BME280;16752;53.364;-1.488;2022-09-03T20:16:08;99832.69;;;28.61;38.00
29879;BME280;16752;53.364;-1.488;2022-09-03T20:26:29;99844.03;;;28.51;38.27
29879;BME280;16752;53.364;-1.488;2022-09-03T20:29:02;99838.31;;;28.48;38.79
29879;BME280;16752;53.364;-1.488;2022-09-03T20:31:37;99843.34;;;28.44;38.44
29879;BME280;16752;53.364;-1.488;2022-09-03T20:36:43;99854.41;;;28.36;38.91
29879;BME280;16752;53.364;-1.488;2022-09-03T20:47:22;99857.03;;;28.43;38.39
29879;BME280;16752;53.364;-1.488;2022-09-03T20:50:00;99863.84;;;28.45;38.13
29879;BME280;16752;53.364;-1.488;2022-09-03T20:55:14;99868.34;;;28.33;38.13
29879;BME280;16752;53.364;-1.488;2022-09-03T20:57:44;99866.59;;;28.39;38.37
29879;BME280;16752;53.364;-1.488;2022-09-03T21:00:13;99869.88;;;28.41;38.13
29879;BME280;16752;53.364;-1.488;2022-09-03T21:02:55;99876.78;;;28.37;38.04
29879;BME280;16752;53.364;-1.488;2022-09-03T21:05:26;99875.50;;;28.39;37.61
29879;BME280;16752;53.364;-1.488;2022-09-03T21:10:28;99873.38;;;28.29;37.64
29879;BME280;16752;53.364;-1.488;2022-09-03T21:13:00;99879.34;;;28.32;37.42
29879;BME280;16752;53.364;-1.488;2022-09-03T21:18:19;99882.75;;;28.27;37.72
29879;BME280;16752;53.364;-1.488;2022-09-03T21:23:21;99896.63;;;28.24;37.79
29879;BME280;16752;53.364;-1.488;2022-09-03T21:25:56;99896.28;;;28.20;37.27
29879;BME280;16752;53.364;-1.488;2022-09-03T21:28:29;99897.09;;;28.21;36.92
29879;BME280;16752;53.364;-1.488;2022-09-03T21:30:58;99901.81;;;28.25;36.59
29879;BME280;16752;53.364;-1.488;2022-09-03T21:33:29;99896.22;;;28.27;36.85
29879;BME280;16752;53.364;-1.488;2022-09-03T21:36:29;99898.16;;;28.20;36.41
29879;BME280;16752;53.364;-1.488;2022-09-03T21:38:49;99898.50;;;28.23;35.82
29879;BME280;16752;53.364;-1.488;2022-09-03T21:41:33;99904.53;;;28.25;36.00
29879;BME280;16752;53.364;-1.488;2022-09-03T21:44:05;99910.09;;;28.24;35.72
29879;BME280;16752;53.364;-1.488;2022-09-03T21:47:14;99908.03;;;28.26;36.02
29879;BME280;16752;53.364;-1.488;2022-09-03T21:49:22;99900.22;;;28.18;35.97
29879;BME280;16752;53.364;-1.488;2022-09-03T21:51:51;99904.13;;;28.22;35.37
29879;BME280;16752;53.364;-1.488;2022-09-03T21:54:22;99908.84;;;28.26;35.46
29879;BME280;16752;53.364;-1.488;2022-09-03T22:04:33;99910.16;;;28.17;35.47
29879;BME280;16752;53.364;-1.488;2022-09-03T22:09:31;99919.97;;;28.12;35.52
29879;BME280;16752;53.364;-1.488;2022-09-03T22:12:05;99918.78;;;28.08;35.76
29879;BME280;16752;53.364;-1.488;2022-09-03T22:14:41;99926.06;;;28.07;35.80
29879;BME280;16752;53.364;-1.488;2022-09-03T22:17:10;99927.34;;;28.05;36.04
29879;BME280;16752;53.364;-1.488;2022-09-03T22:19:41;99927.41;;;27.98;35.94
29879;BME280;16752;53.364;-1.488;2022-09-03T22:22:07;99919.53;;;27.96;35.98
29879;BME280;16752;53.364;-1.488;2022-09-03T22:24:47;99924.56;;;27.93;36.29
29879;BME280;16752;53.364;-1.488;2022-09-03T22:30:04;99926.94;;;27.64;36.77
29879;BME280;16752;53.364;-1.488;2022-09-03T22:32:38;99924.94;;;27.78;36.44
29879;BME280;16752;53.364;-1.488;2022-09-03T22:42:44;99922.75;;;27.68;36.96
29879;BME280;16752;53.364;-1.488;2022-09-03T22:45:30;99917.00;;;27.65;37.17
29879;BME280;16752;53.364;-1.488;2022-09-03T22:48:09;99923.25;;;27.59;37.24
29879;BME280;16752;53.364;-1.488;2022-09-03T22:55:53;99922.91;;;27.49;37.52
29879;BME280;16752;53.364;-1.488;2022-09-03T22:58:23;99912.38;;;27.47;37.50
29879;BME280;16752;53.364;-1.488;2022-09-03T23:00:56;99913.66;;;27.45;37.58
29879;BME280;16752;53.364;-1.488;2022-09-03T23:03:24;99914.97;;;27.35;37.84
29879;BME280;16752;53.364;-1.488;2022-09-03T23:05:53;99914.56;;;27.32;37.86
29879;BME280;16752;53.364;-1.488;2022-09-03T23:08:26;99910.31;;;27.24;37.65
29879;BME280;16752;53.364;-1.488;2022-09-03T23:16:02;99927.19;;;27.13;38.00
29879;BME280;16752;53.364;-1.488;2022-09-03T23:18:29;99920.56;;;27.09;38.19
29879;BME280;16752;53.364;-1.488;2022-09-03T23:23:31;99925.19;;;27.02;38.27
29879;BME280;16752;53.364;-1.488;2022-09-03T23:31:35;99922.75;;;26.87;38.81
29879;BME280;16752;53.364;-1.488;2022-09-03T23:34:02;99924.03;;;26.85;38.64